TimeMDT,TemperatureF,Dew PointF,Humidity,Sea Level PressureIn,VisibilityMPH,Wind Direction,Wind SpeedMPH,Gust SpeedMPH,PrecipitationIn,Events,Conditions,WindDirDegrees,DateUTC
12:53 AM,62.1,39.9,44,29.96,10.0,NW,6.9,-,N/A,,Mostly Cloudy,320,2012-10-13 06:53:00
1:53 AM,63.0,45.0,52,29.98,10.0,WNW,17.3,23.0,N/A,,Overcast,300,2012-10-13 07:53:00
2:53 AM,60.1,48.0,64,30.01,10.0,NNW,10.4,-,0.00,,Overcast,340,2012-10-13 08:53:00
3:53 AM,59.0,46.9,64,30.03,10.0,NW,5.8,-,N/A,,Overcast,320,2012-10-13 09:53:00
4:53 AM,55.9,50.0,80,30.06,10.0,NNW,4.6,-,0.00,Rain,Light Rain,330,2012-10-13 10:53:00
5:53 AM,55.9,50.0,80,30.07,10.0,NNW,5.8,-,0.01,Rain,Light Rain,330,2012-10-13 11:53:00
6:53 AM,53.1,48.9,86,30.13,10.0,WSW,8.1,-,0.00,,Mostly Cloudy,250,2012-10-13 12:53:00
7:53 AM,53.1,48.0,83,30.14,10.0,WSW,9.2,-,N/A,,Mostly Cloudy,250,2012-10-13 13:53:00
8:53 AM,57.0,46.9,69,30.17,10.0,West,11.5,-,N/A,,Overcast,280,2012-10-13 14:53:00
9:53 AM,57.9,48.9,72,30.20,10.0,WSW,5.8,-,N/A,,Overcast,250,2012-10-13 15:53:00
10:53 AM,61.0,46.9,60,30.22,10.0,WSW,9.2,-,N/A,,Clear,250,2012-10-13 16:53:00
11:53 AM,64.9,46.0,50,30.22,10.0,Variable,4.6,-,N/A,,Clear,0,2012-10-13 17:53:00
12:53 PM,66.9,45.0,45,30.22,10.0,WSW,6.9,-,N/A,,Partly Cloudy,240,2012-10-13 18:53:00
1:53 PM,69.1,44.1,40,30.19,10.0,WSW,6.9,-,N/A,,Mostly Cloudy,240,2012-10-13 19:53:00
2:53 PM,71.1,44.1,38,30.17,10.0,Variable,5.8,-,N/A,,Mostly Cloudy,0,2012-10-13 20:53:00
3:53 PM,71.1,42.1,35,30.18,10.0,Variable,3.5,-,N/A,,Mostly Cloudy,0,2012-10-13 21:53:00
4:53 PM,73.0,42.1,33,30.18,10.0,WNW,9.2,-,N/A,,Overcast,290,2012-10-13 22:53:00
6:53 PM,66.9,43.0,42,30.21,10.0,Calm,Calm,-,N/A,,Clear,0,2012-10-14 00:53:00
7:53 PM,62.1,44.1,52,30.22,10.0,ESE,3.5,-,N/A,,Clear,120,2012-10-14 01:53:00
8:53 PM,54.0,42.1,64,30.23,10.0,NW,4.6,-,N/A,,Clear,310,2012-10-14 02:53:00
11:53 PM,48.0,39.9,74,30.26,10.0,West,5.8,-,N/A,,Clear,280,2012-10-14 05:53:00